Disclaimer

Please do not use the information listed here in-flight or in-navigation, as they are not provided to us by the airports but are provided by volunteers, so they might be outdated.

Search


Regions


Airport information page

No radio frequency information is available.

Airport informations:
Latitude: 21° 59' 04.42" S
Longitude: 047° 20' 05.15" W
Elevation: 1968 feet - 600 meters
Operating hours: N/A
Operating agency: Military
Timezone: UTC-3(-2DT)
Fuel: Jet A1, without icing nhibitor.

100/130 octane gasoline, leaded, MIL-L-5572F (GREEN)

Runway information:
02C/20C - 6919 x 148 feet< - >2109 x 45 meters
02R/20L - 6230 x 148 feet< - >1899 x 45 meters
02L/20R - 6919 x 148 feet< - >2109 x 45 meters

Recent METARs:
SBYS 210100Z 19010KT 9999 BKN020 BKN045 19/17 Q1018
SBYS 210100Z 19010KT 9999 BKN020 BKN045 19/17 Q1018

Airport on the map: